KMCF/MCF METAR and TAF weather

Enter ICAO airport designator
Station Type Date Time Source
KMCF METAR 2019/08/21 22:56 UTC NOAA

KMCF 212256Z AUTO 22008KT 10SM CLR 31/24 A3002 RMK AO2 SLP169 T03080244 FZRANO $


Station Type Date Time Source
KMCF Decoded METAR 2019/08/21 22:56 UTC NOAA

Station name not available
Aug 21, 2019 - 06:56 PM EDT / 2019.08.21 2256 UTC
Wind: from the SW (220 degrees) at 9 MPH (8 KT):0
Visibility: 10 mile(s):0
Sky conditions: clear
Temperature: 87.4 F (30.8 C)
Heat index: 97.5 F (36.4 C):1
Dew Point: 75.9 F (24.4 C)
Relative Humidity: 68%
Pressure (altimeter): 30.02 in. Hg (1016 hPa)
ob: KMCF 212256Z AUTO 22008KT 10SM CLR 31/24 A3002 RMK AO2 SLP169 T03080244 FZRANO
cycle: 23

Station Type Date Time Source
KMCF TAF 2019/08/21 20:59 UTC NOAA

TAF
AMD KMCF 212050Z 2120/2223 16009KT 9999 SCT050 QNH3000INS
BECMG 2121/2122 15009KT 9000 -SHRA VCTS SCT050CB QNH2997INS
TEMPO 2122/2201 VRB10G20KT 9000 -TSRA BKN040CB
BECMG 2202/2203 VRB06KT 9999 NSW FEW020 SCT050 QNH3004INS TX34/2121Z TN24/2211Z

Example: see airport list